Time;durP1;ratioP1;P1;durP2;ratioP2;P2;SDS_P1;SDS_P2;PMS_P1;PMS_P2;Temp;Humidity;BMP_temperature;BMP_pressure;BME280_temperature;BME280_humidity;BME280_pressure;Samples;Min_cycle;Max_cycle;Signal;HPM_P1;HPM_P2
2021/05/05 00:00:29;;;;;;;2.72;1.70;;;8.60;99.90;;;;;;4338582;33;20478;-63
2021/05/05 00:02:55;;;;;;;1.75;1.40;;;8.50;99.90;;;;;;4332608;33;20581;-65
2021/05/05 00:05:22;;;;;;;1.58;1.48;;;8.50;99.90;;;;;;4311275;32;20094;-64
2021/05/05 00:07:49;;;;;;;1.67;1.27;;;8.40;99.90;;;;;;4328174;33;20592;-64
2021/05/05 00:10:15;;;;;;;2.05;1.60;;;8.20;99.90;;;;;;4332227;33;20079;-63
2021/05/05 00:12:43;;;;;;;2.28;1.67;;;8.10;99.90;;;;;;4326587;32;20869;-66
2021/05/05 00:15:15;;;;;;;3.37;2.05;;;8.10;99.90;;;;;;4351705;32;20067;-65
2021/05/05 00:17:42;;;;;;;2.97;2.05;;;8.00;99.90;;;;;;4341843;33;20513;-64
2021/05/05 00:20:10;;;;;;;3.20;2.30;;;8.00;99.90;;;;;;4328880;32;20086;-63
2021/05/05 00:22:36;;;;;;;4.45;2.50;;;7.90;99.90;;;;;;4325188;33;20078;-63
2021/05/05 00:25:04;;;;;;;3.40;2.28;;;7.80;99.90;;;;;;4335104;32;20074;-63
2021/05/05 00:27:30;;;;;;;5.35;2.72;;;7.80;99.90;;;;;;4346145;33;20086;-63
2021/05/05 00:29:57;;;;;;;6.50;3.00;;;7.80;99.90;;;;;;4341916;32;20070;-64
2021/05/05 00:32:23;;;;;;;6.87;3.20;;;7.70;99.90;;;;;;4334531;33;20449;-64
2021/05/05 00:34:50;;;;;;;4.45;3.08;;;7.70;99.90;;;;;;4317870;32;20444;-63
2021/05/05 00:37:16;;;;;;;3.30;2.50;;;7.60;99.90;;;;;;4342857;33;20063;-63
2021/05/05 00:39:43;;;;;;;3.45;2.00;;;7.60;99.90;;;;;;4327540;32;20063;-63
2021/05/05 00:42:09;;;;;;;2.15;1.75;;;7.50;99.90;;;;;;4342121;33;20079;-64
2021/05/05 00:44:35;;;;;;;2.40;1.80;;;7.50;99.90;;;;;;4345358;32;20159;-65
2021/05/05 00:47:01;;;;;;;3.80;1.70;;;7.50;99.90;;;;;;4336390;32;20066;-63
2021/05/05 00:49:28;;;;;;;3.28;2.10;;;7.40;99.90;;;;;;4337268;32;20078;-64
2021/05/05 00:51:54;;;;;;;3.08;2.05;;;7.30;99.90;;;;;;4336692;32;20086;-64
2021/05/05 00:54:21;;;;;;;3.87;2.33;;;7.20;99.90;;;;;;4333808;33;20109;-65
2021/05/05 00:56:47;;;;;;;3.30;2.40;;;7.20;99.90;;;;;;4337183;32;20194;-64
2021/05/05 00:59:13;;;;;;;5.03;2.50;;;7.10;99.90;;;;;;4334752;32;20074;-64
2021/05/05 01:01:41;;;;;;;3.62;2.60;;;7.00;99.90;;;;;;4334714;33;20494;-63
2021/05/05 01:04:07;;;;;;;4.55;2.80;;;7.00;99.90;;;;;;4339901;33;20069;-63
2021/05/05 01:06:34;;;;;;;3.60;2.60;;;7.00;99.90;;;;;;4325680;33;20078;-64
2021/05/05 01:09:00;;;;;;;3.67;2.60;;;6.90;99.90;;;;;;4334724;33;20074;-65
2021/05/05 01:11:27;;;;;;;4.22;3.03;;;6.90;99.90;;;;;;4336145;33;20075;-63
2021/05/05 01:13:54;;;;;;;5.40;3.42;;;6.80;99.90;;;;;;4336009;33;20077;-65
2021/05/05 01:16:20;;;;;;;5.95;3.12;;;6.80;99.90;;;;;;4331604;32;20158;-62
2021/05/05 01:18:46;;;;;;;4.28;2.50;;;6.80;99.90;;;;;;4337276;33;20083;-63
2021/05/05 01:21:12;;;;;;;3.47;2.15;;;6.70;99.90;;;;;;4344654;33;20070;-64
2021/05/05 01:23:39;;;;;;;2.08;1.45;;;6.70;99.90;;;;;;4324560;33;20058;-63
2021/05/05 01:26:05;;;;;;;2.60;1.83;;;6.90;99.90;;;;;;4341687;33;20074;-63
2021/05/05 01:28:31;;;;;;;1.40;1.30;;;6.80;99.90;;;;;;4334757;33;20079;-64
2021/05/05 01:30:57;;;;;;;1.73;1.40;;;6.80;99.90;;;;;;4346398;32;20073;-64
2021/05/05 01:33:23;;;;;;;1.50;1.40;;;6.90;99.90;;;;;;4345475;33;20074;-63
2021/05/05 01:35:50;;;;;;;1.85;1.67;;;6.90;99.90;;;;;;4321377;32;21229;-64
2021/05/05 01:38:17;;;;;;;2.17;1.60;;;6.90;99.90;;;;;;4328303;33;20094;-64
2021/05/05 01:40:44;;;;;;;2.28;1.50;;;6.80;99.90;;;;;;4315734;33;20091;-64
2021/05/05 01:43:10;;;;;;;1.80;1.50;;;6.80;99.90;;;;;;4345639;32;20085;-64
2021/05/05 01:45:37;;;;;;;2.20;1.55;;;6.80;99.90;;;;;;4324143;32;20160;-64
2021/05/05 01:48:06;;;;;;;2.75;1.70;;;6.70;99.90;;;;;;4336887;33;20082;-63
2021/05/05 01:50:32;;;;;;;2.53;1.60;;;6.70;99.90;;;;;;4321537;32;20178;-65
2021/05/05 01:52:58;;;;;;;2.22;1.92;;;6.70;99.90;;;;;;4333616;33;20098;-64
2021/05/05 01:55:25;;;;;;;3.35;1.70;;;6.70;99.90;;;;;;4333703;33;20535;-64
2021/05/05 01:57:51;;;;;;;3.08;2.08;;;6.80;99.90;;;;;;4337727;33;20079;-64
2021/05/05 02:00:21;;;;;;;3.03;1.70;;;6.80;99.90;;;;;;4343207;32;20066;-65
2021/05/05 02:02:47;;;;;;;2.28;1.77;;;6.80;99.90;;;;;;4338015;33;20067;-63
2021/05/05 02:05:14;;;;;;;3.15;1.77;;;6.80;99.90;;;;;;4334156;33;20091;-63
2021/05/05 02:07:41;;;;;;;1.95;1.65;;;6.80;99.90;;;;;;4325946;33;20074;-64
2021/05/05 02:10:10;;;;;;;1.83;1.70;;;6.80;99.90;;;;;;4333797;33;20508;-63
2021/05/05 02:12:36;;;;;;;4.47;1.67;;;6.90;99.90;;;;;;4342535;33;20070;-64
2021/05/05 02:15:08;;;;;;;2.00;1.40;;;6.80;99.90;;;;;;4322824;33;20578;-63
2021/05/05 02:17:36;;;;;;;3.65;1.75;;;6.80;99.90;;;;;;4323612;33;20073;-65
2021/05/05 02:20:10;;;;;;;4.50;1.70;;;6.90;99.90;;;;;;4326383;33;20067;-63
2021/05/05 02:22:38;;;;;;;3.90;1.90;;;6.90;99.90;;;;;;4333016;33;20147;-62
2021/05/05 02:25:05;;;;;;;2.35;1.90;;;7.00;99.90;;;;;;4334780;32;20082;-64
2021/05/05 02:27:31;;;;;;;2.83;1.40;;;7.00;99.90;;;;;;4333307;33;20070;-64
2021/05/05 02:29:57;;;;;;;2.80;1.40;;;7.00;99.90;;;;;;4345255;33;20067;-66
2021/05/05 02:32:24;;;;;;;2.05;1.60;;;7.10;99.90;;;;;;4340450;33;20196;-64
2021/05/05 02:34:51;;;;;;;2.87;1.67;;;7.10;99.90;;;;;;4320567;33;20160;-65
2021/05/05 02:37:17;;;;;;;2.03;1.40;;;7.10;99.90;;;;;;4341389;33;20079;-64
2021/05/05 02:39:44;;;;;;;5.72;1.73;;;7.20;99.90;;;;;;4336164;33;20075;-64
2021/05/05 02:42:13;;;;;;;4.70;1.80;;;7.30;99.90;;;;;;4326816;33;20513;-65
2021/05/05 02:44:40;;;;;;;3.22;1.60;;;7.20;99.90;;;;;;4343959;32;20146;-65
2021/05/05 02:47:06;;;;;;;1.67;1.30;;;7.30;99.90;;;;;;4332898;33;20071;-64
2021/05/05 02:49:33;;;;;;;2.50;1.55;;;7.30;99.90;;;;;;4320965;33;20089;-63
2021/05/05 02:52:03;;;;;;;1.15;1.02;;;7.30;99.90;;;;;;4338135;33;20070;-63
2021/05/05 02:54:29;;;;;;;3.15;1.65;;;7.30;99.90;;;;;;4340716;33;20071;-62
2021/05/05 02:56:56;;;;;;;2.35;1.60;;;7.40;99.90;;;;;;4321145;32;20074;-63
2021/05/05 02:59:24;;;;;;;3.83;1.67;;;7.40;99.90;;;;;;4344422;33;20099;-64
2021/05/05 03:01:55;;;;;;;5.25;2.10;;;7.40;99.90;;;;;;4333177;33;20519;-64
2021/05/05 03:04:22;;;;;;;2.72;1.80;;;7.40;99.90;;;;;;4327595;33;20158;-63
2021/05/05 03:06:49;;;;;;;2.80;1.95;;;7.40;99.90;;;;;;4320492;33;20073;-64
2021/05/05 03:09:27;;;;;;;5.28;1.95;;;7.40;99.90;;;;;;4336579;32;20101;-63
2021/05/05 03:11:55;;;;;;;3.45;2.25;;;7.50;99.90;;;;;;4333207;33;20517;-65
2021/05/05 03:14:26;;;;;;;4.95;1.90;;;7.50;99.90;;;;;;4338093;33;20106;-63
2021/05/05 03:16:53;;;;;;;3.05;1.92;;;7.50;99.90;;;;;;4320699;33;20441;-64
2021/05/05 03:19:19;;;;;;;2.72;1.60;;;7.50;99.90;;;;;;4324135;32;20493;-64
2021/05/05 03:21:46;;;;;;;2.08;1.62;;;7.60;99.90;;;;;;4335808;33;20082;-64
2021/05/05 03:24:12;;;;;;;4.72;1.67;;;7.60;99.90;;;;;;4326323;33;20095;-64
2021/05/05 03:26:38;;;;;;;3.60;1.30;;;7.70;99.90;;;;;;4331528;32;20163;-63
2021/05/05 03:29:05;;;;;;;1.37;1.17;;;7.70;99.90;;;;;;4332762;33;20158;-65
2021/05/05 03:31:33;;;;;;;2.22;1.65;;;7.60;99.90;;;;;;4344853;33;20068;-63
2021/05/05 03:33:59;;;;;;;1.52;1.42;;;7.70;99.90;;;;;;4332620;33;20543;-64
2021/05/05 03:36:25;;;;;;;1.92;1.40;;;7.80;99.90;;;;;;4336029;33;20063;-64
2021/05/05 03:38:52;;;;;;;2.78;1.87;;;7.80;99.90;;;;;;4332157;32;20536;-64
2021/05/05 03:41:18;;;;;;;2.75;1.27;;;7.70;99.90;;;;;;4332471;33;20077;-63
2021/05/05 03:43:44;;;;;;;3.97;1.55;;;7.80;99.90;;;;;;4332406;33;20092;-64
2021/05/05 03:46:10;;;;;;;2.83;1.30;;;7.90;99.90;;;;;;4346184;32;20085;-64
2021/05/05 03:48:36;;;;;;;4.25;1.77;;;8.00;99.90;;;;;;4328283;33;20089;-65
2021/05/05 03:51:04;;;;;;;3.65;1.55;;;7.90;99.90;;;;;;4320009;33;20588;-62
2021/05/05 03:53:30;;;;;;;1.98;1.42;;;8.00;99.90;;;;;;4332212;33;20153;-64
2021/05/05 03:55:57;;;;;;;1.90;1.33;;;7.90;99.90;;;;;;4337245;33;20102;-65
2021/05/05 03:58:24;;;;;;;3.12;1.12;;;8.00;99.90;;;;;;4320264;33;20486;-63
2021/05/05 04:00:50;;;;;;;2.83;1.40;;;8.00;99.90;;;;;;4318135;33;20163;-63
2021/05/05 04:03:17;;;;;;;3.42;1.50;;;8.20;99.90;;;;;;4320655;33;20564;-64
2021/05/05 04:05:43;;;;;;;1.92;1.20;;;8.10;99.90;;;;;;4319589;32;20156;-64
2021/05/05 04:08:10;;;;;;;1.85;1.35;;;8.00;99.90;;;;;;4334761;32;20158;-64
2021/05/05 04:10:37;;;;;;;2.62;1.58;;;8.00;99.90;;;;;;4327981;33;20074;-64
2021/05/05 04:13:03;;;;;;;2.50;1.65;;;8.20;99.90;;;;;;4332057;32;20167;-63
2021/05/05 04:15:30;;;;;;;4.32;2.05;;;8.30;99.90;;;;;;4334350;32;20544;-63
2021/05/05 04:17:57;;;;;;;2.33;1.85;;;8.40;99.90;;;;;;4323996;33;20063;-65
2021/05/05 04:20:23;;;;;;;4.20;1.40;;;8.50;99.90;;;;;;4320576;33;20089;-64
2021/05/05 04:22:49;;;;;;;3.00;1.20;;;8.50;99.90;;;;;;4334536;33;20237;-63
2021/05/05 04:25:16;;;;;;;3.12;1.45;;;8.40;99.90;;;;;;4334078;32;20592;-64
2021/05/05 04:27:43;;;;;;;5.57;1.67;;;8.50;99.90;;;;;;4345546;32;20070;-63
2021/05/05 04:30:12;;;;;;;2.65;1.45;;;8.40;99.90;;;;;;4333037;33;20070;-65
2021/05/05 04:32:40;;;;;;;2.75;1.35;;;8.30;99.90;;;;;;4328536;33;20604;-65
2021/05/05 04:35:08;;;;;;;2.58;1.15;;;8.50;99.90;;;;;;4319997;33;20087;-63
2021/05/05 04:37:34;;;;;;;1.62;1.12;;;9.10;99.90;;;;;;4327531;33;20082;-63
2021/05/05 04:40:01;;;;;;;4.75;1.20;;;9.80;99.90;;;;;;4332464;33;20067;-63
2021/05/05 04:42:27;;;;;;;1.87;1.45;;;10.30;99.90;;;;;;4340032;33;20063;-64
2021/05/05 04:44:54;;;;;;;4.32;1.70;;;10.40;99.90;;;;;;4332453;32;20070;-63
2021/05/05 04:47:20;;;;;;;2.33;1.52;;;10.70;99.90;;;;;;4334357;32;20147;-64
2021/05/05 04:49:46;;;;;;;3.67;1.62;;;10.60;99.90;;;;;;4340609;33;20063;-63
2021/05/05 04:52:12;;;;;;;2.47;1.37;;;10.40;99.90;;;;;;4333726;33;20063;-63
2021/05/05 04:54:39;;;;;;;3.47;1.60;;;10.20;99.90;;;;;;4340556;33;20075;-64
2021/05/05 04:57:05;;;;;;;5.25;1.55;;;10.70;99.90;;;;;;4332370;33;20176;-63
2021/05/05 04:59:31;;;;;;;1.77;1.33;;;11.00;99.90;;;;;;4352768;32;20070;-63
2021/05/05 05:01:57;;;;;;;3.20;1.87;;;10.60;98.00;;;;;;4342573;33;20543;-63
2021/05/05 05:04:24;;;;;;;3.42;1.70;;;10.60;99.20;;;;;;4331776;32;20117;-63
2021/05/05 05:06:50;;;;;;;3.70;1.75;;;10.90;96.00;;;;;;4327338;33;20083;-62
2021/05/05 05:09:16;;;;;;;2.65;1.60;;;10.60;97.00;;;;;;4334704;33;20090;-63
2021/05/05 05:11:43;;;;;;;5.03;1.92;;;11.20;93.20;;;;;;4334389;33;20083;-62
2021/05/05 05:14:09;;;;;;;5.10;2.00;;;10.70;95.00;;;;;;4335188;33;20154;-63
2021/05/05 05:16:35;;;;;;;3.10;1.62;;;10.20;97.00;;;;;;4342243;33;20517;-62
2021/05/05 05:19:02;;;;;;;8.98;1.60;;;10.80;93.70;;;;;;4335665;32;20086;-63
2021/05/05 05:21:28;;;;;;;1.65;1.25;;;11.20;94.10;;;;;;4344569;33;20082;-62
2021/05/05 05:23:55;;;;;;;1.40;1.10;;;11.00;92.90;;;;;;4341264;32;20183;-63
2021/05/05 05:26:21;;;;;;;2.20;1.33;;;10.90;91.90;;;;;;4344710;32;20067;-62
2021/05/05 05:28:47;;;;;;;3.12;1.52;;;10.80;91.70;;;;;;4322488;33;20087;-63
2021/05/05 05:31:13;;;;;;;2.47;1.30;;;11.10;92.70;;;;;;4349945;32;20081;-63
2021/05/05 05:33:39;;;;;;;2.03;1.42;;;10.50;92.50;;;;;;4358122;32;20078;-61
2021/05/05 05:36:06;;;;;;;2.87;1.60;;;11.40;91.20;;;;;;4313043;33;20067;-61
2021/05/05 05:38:32;;;;;;;5.68;1.70;;;10.90;90.40;;;;;;4331938;32;20067;-60
2021/05/05 05:40:59;;;;;;;2.80;1.42;;;11.20;89.70;;;;;;4343482;32;20540;-63
2021/05/05 05:43:25;;;;;;;3.15;1.65;;;11.00;82.20;;;;;;4343589;33;20565;-62
2021/05/05 05:45:51;;;;;;;4.35;1.33;;;11.20;89.10;;;;;;4337189;32;20100;-60
2021/05/05 05:48:18;;;;;;;3.78;1.20;;;11.50;84.80;;;;;;4351921;32;20152;-61
2021/05/05 05:50:44;;;;;;;2.47;1.55;;;11.10;83.40;;;;;;4341770;33;20087;-60
2021/05/05 05:53:10;;;;;;;1.30;1.20;;;11.20;84.80;;;;;;4332093;32;20091;-62
2021/05/05 05:55:41;;;;;;;3.15;2.05;;;12.00;83.40;;;;;;4340791;33;20063;-61
2021/05/05 05:58:07;;;;;;;3.65;1.25;;;11.40;78.70;;;;;;4342856;32;20070;-61
2021/05/05 06:00:33;;;;;;;3.60;1.35;;;11.00;77.60;;;;;;4311510;32;20066;-60
2021/05/05 06:02:59;;;;;;;1.70;1.23;;;11.40;77.00;;;;;;4321594;33;20071;-61
2021/05/05 06:05:26;;;;;;;1.58;1.23;;;11.40;78.80;;;;;;4340554;33;20075;-60
2021/05/05 06:07:52;;;;;;;1.98;1.20;;;11.10;80.40;;;;;;4356659;32;20073;-63
2021/05/05 06:10:19;;;;;;;1.33;1.10;;;10.90;82.70;;;;;;4335150;32;20082;-61
2021/05/05 06:12:45;;;;;;;2.70;1.30;;;11.90;75.60;;;;;;4297695;33;20178;-59
2021/05/05 06:15:12;;;;;;;7.37;1.60;;;11.10;75.30;;;;;;4330423;32;20098;-60
2021/05/05 06:17:38;;;;;;;2.22;1.25;;;11.40;73.90;;;;;;4343093;33;20066;-60
2021/05/05 06:20:06;;;;;;;5.55;1.70;;;10.50;78.90;;;;;;4337749;33;20161;-61
2021/05/05 06:22:33;;;;;;;3.50;1.48;;;10.80;83.90;;;;;;4335045;33;20098;-62
2021/05/05 06:25:00;;;;;;;3.50;1.30;;;11.00;83.90;;;;;;4343751;32;20156;-60
2021/05/05 06:27:39;;;;;;;4.40;1.58;;;10.90;78.40;;;;;;3836272;37;20050;-61
2021/05/05 06:30:07;;;;;;;3.53;1.23;;;10.80;82.20;;;;;;4402917;32;20090;-61
2021/05/05 06:32:34;;;;;;;2.62;1.02;;;10.60;85.80;;;;;;4394309;32;20192;-62
2021/05/05 06:35:01;;;;;;;2.42;1.00;;;10.90;85.30;;;;;;4388754;32;20078;-62
2021/05/05 06:37:27;;;;;;;2.40;1.05;;;10.50;81.10;;;;;;4383854;32;20432;-64
2021/05/05 06:39:53;;;;;;;4.47;1.15;;;10.80;81.80;;;;;;4404756;32;20072;-62
2021/05/05 06:42:20;;;;;;;1.87;1.20;;;10.70;83.20;;;;;;4378123;32;20101;-61
2021/05/05 06:44:47;;;;;;;4.97;1.85;;;10.50;82.90;;;;;;4379840;32;20070;-59
2021/05/05 06:47:13;;;;;;;2.50;0.98;;;10.50;85.60;;;;;;4384450;32;20191;-60
2021/05/05 06:49:39;;;;;;;1.73;1.25;;;10.50;82.20;;;;;;4385635;32;20137;-60
2021/05/05 06:52:07;;;;;;;1.40;1.00;;;10.50;83.20;;;;;;4389424;32;20074;-60
2021/05/05 06:54:33;;;;;;;1.05;0.90;;;10.50;81.40;;;;;;4385384;32;20169;-60
2021/05/05 06:57:00;;;;;;;1.30;1.12;;;10.30;79.50;;;;;;4377829;32;20084;-61
2021/05/05 06:59:26;;;;;;;1.85;0.73;;;10.80;77.90;;;;;;4366335;32;20160;-62
2021/05/05 07:01:52;;;;;;;1.08;0.82;;;11.50;75.90;;;;;;4385717;32;20068;-61
2021/05/05 07:04:19;;;;;;;0.70;0.70;;;11.30;73.90;;;;;;4384707;32;20066;-61
2021/05/05 07:06:45;;;;;;;4.25;1.45;;;11.00;75.80;;;;;;4384968;32;20096;-61
2021/05/05 07:09:11;;;;;;;1.23;1.00;;;11.70;73.50;;;;;;4400836;32;20097;-61
2021/05/05 07:11:39;;;;;;;3.45;1.20;;;11.10;73.10;;;;;;4389444;32;20081;-63
2021/05/05 07:14:06;;;;;;;3.12;1.23;;;11.00;68.20;;;;;;4366340;32;20085;-60
2021/05/05 07:16:33;;;;;;;2.10;0.95;;;11.40;67.90;;;;;;4388298;32;20107;-62
2021/05/05 07:18:59;;;;;;;2.05;0.77;;;11.10;69.80;;;;;;4377611;32;20074;-61
2021/05/05 07:21:26;;;;;;;5.22;1.00;;;11.60;67.50;;;;;;4384467;32;20061;-60
2021/05/05 07:23:52;;;;;;;1.52;1.10;;;12.20;67.50;;;;;;4386315;32;20180;-61
2021/05/05 07:26:19;;;;;;;3.33;1.30;;;11.80;65.40;;;;;;4389867;32;20077;-63
2021/05/05 07:28:46;;;;;;;1.90;0.95;;;11.70;68.30;;;;;;4401259;32;20081;-62
2021/05/05 07:31:12;;;;;;;1.70;1.10;;;11.60;64.40;;;;;;4416295;32;20073;-62
2021/05/05 07:33:39;;;;;;;1.48;1.20;;;12.00;64.00;;;;;;4370301;32;20162;-61
2021/05/05 07:36:18;;;;;;;1.20;1.00;;;11.50;67.30;;;;;;4383507;32;20073;-62
2021/05/05 07:42:11;;;;;;;2.00;1.08;;;11.40;64.80;;;;;;4396005;32;20070;-60
2021/05/05 07:47:17;;;;;;;3.50;1.05;;;11.10;66.30;;;;;;4396202;32;20074;-60
2021/05/05 07:49:48;;;;;;;1.80;0.95;;;11.70;64.50;;;;;;4404753;32;20081;-60
2021/05/05 07:52:15;;;;;;;2.55;1.00;;;11.40;64.30;;;;;;4395259;32;20150;-61
2021/05/05 07:54:41;;;;;;;2.78;1.12;;;11.60;60.70;;;;;;4360433;32;20156;-61
2021/05/05 07:57:08;;;;;;;4.65;1.62;;;11.70;60.30;;;;;;4396222;32;20073;-62
2021/05/05 07:59:34;;;;;;;1.83;0.90;;;11.90;60.40;;;;;;4392979;32;20084;-61
2021/05/05 08:02:00;;;;;;;1.73;1.02;;;11.40;56.70;;;;;;4374150;32;20085;-60
2021/05/05 08:04:27;;;;;;;1.23;0.90;;;11.40;58.50;;;;;;4381821;32;20065;-60
2021/05/05 08:06:53;;;;;;;3.90;1.58;;;11.50;60.10;;;;;;4382858;32;20508;-59
2021/05/05 08:09:21;;;;;;;1.83;1.20;;;11.60;60.20;;;;;;4363159;32;20058;-60
2021/05/05 08:11:49;;;;;;;1.37;1.20;;;11.30;61.10;;;;;;4375679;32;20057;-59
2021/05/05 08:14:15;;;;;;;1.80;1.20;;;11.40;60.20;;;;;;4379978;32;20077;-60
2021/05/05 08:16:41;;;;;;;1.83;0.73;;;11.50;61.40;;;;;;4365674;32;20069;-59
2021/05/05 08:19:07;;;;;;;2.15;1.10;;;11.80;61.10;;;;;;4379812;32;20153;-61
2021/05/05 08:21:34;;;;;;;1.95;1.55;;;11.50;59.70;;;;;;4364464;32;20085;-60
2021/05/05 08:24:00;;;;;;;3.35;1.30;;;11.50;58.90;;;;;;4374717;32;20183;-60
2021/05/05 08:26:29;;;;;;;1.80;0.68;;;11.60;58.70;;;;;;4398205;32;20240;-61
2021/05/05 08:28:57;;;;;;;2.67;0.75;;;11.40;57.90;;;;;;4388189;32;20065;-59
2021/05/05 08:31:24;;;;;;;4.50;1.40;;;11.60;59.40;;;;;;4384866;32;20130;-59
2021/05/05 08:33:50;;;;;;;2.67;1.40;;;11.90;57.70;;;;;;4395732;32;20065;-60
2021/05/05 08:36:17;;;;;;;1.37;1.27;;;12.00;56.90;;;;;;4405766;32;20485;-59
2021/05/05 08:38:43;;;;;;;2.58;1.50;;;12.40;55.90;;;;;;4391496;32;20072;-60
2021/05/05 08:41:11;;;;;;;1.95;1.20;;;12.30;53.30;;;;;;4417389;32;20403;-60
2021/05/05 08:43:37;;;;;;;11.73;1.45;;;12.20;53.00;;;;;;4383897;32;20105;-60
2021/05/05 08:46:07;;;;;;;3.25;1.30;;;12.30;52.00;;;;;;4374696;32;20058;-60
2021/05/05 08:48:35;;;;;;;8.23;1.80;;;12.40;52.60;;;;;;4391561;32;20058;-66
2021/05/05 08:51:05;;;;;;;2.05;1.00;;;11.60;51.70;;;;;;4400396;32;20484;-61
2021/05/05 08:53:32;;;;;;;2.70;1.20;;;11.80;52.40;;;;;;4381645;32;20169;-59
2021/05/05 08:55:59;;;;;;;3.80;1.12;;;12.20;52.00;;;;;;4384105;32;20146;-60
2021/05/05 08:58:25;;;;;;;2.78;1.10;;;12.60;48.80;;;;;;4387132;32;20058;-62
2021/05/05 09:00:51;;;;;;;2.45;1.00;;;12.40;47.50;;;;;;4405494;32;20081;-60
2021/05/05 09:03:18;;;;;;;2.85;1.33;;;12.50;48.20;;;;;;4389725;32;20066;-61
2021/05/05 09:06:00;;;;;;;2.85;1.45;;;12.40;47.70;;;;;;4389371;32;20162;-61
2021/05/05 09:08:28;;;;;;;3.75;1.60;;;12.40;49.10;;;;;;4396155;32;20069;-67
2021/05/05 09:11:09;;;;;;;5.18;1.27;;;12.40;49.40;;;;;;4397756;32;20085;-62
2021/05/05 09:13:55;;;;;;;3.28;1.50;;;12.30;49.10;;;;;;4387836;32;20155;-62
2021/05/05 09:16:31;;;;;;;4.68;1.58;;;12.40;49.20;;;;;;4373394;32;20065;-62
2021/05/05 09:19:09;;;;;;;2.20;1.48;;;12.50;50.00;;;;;;4377915;32;20144;-60
2021/05/05 09:21:49;;;;;;;3.87;1.62;;;12.20;50.50;;;;;;4388813;32;20054;-60
2021/05/05 09:24:30;;;;;;;2.45;1.25;;;12.00;49.50;;;;;;4383323;32;20165;-61
2021/05/05 09:27:09;;;;;;;2.85;1.25;;;11.80;51.30;;;;;;4383777;32;20085;-62
2021/05/05 09:29:50;;;;;;;4.15;2.00;;;11.70;53.70;;;;;;4368889;32;20077;-60
2021/05/05 09:32:20;;;;;;;2.90;1.30;;;11.70;55.00;;;;;;4396080;32;20076;-62
2021/05/05 09:35:00;;;;;;;2.47;1.20;;;11.90;55.20;;;;;;4387466;32;20512;-62
2021/05/05 09:37:27;;;;;;;3.05;1.50;;;11.60;54.60;;;;;;4355639;32;20070;-61
2021/05/05 09:40:05;;;;;;;1.73;1.40;;;11.50;54.90;;;;;;4360038;32;20085;-63
2021/05/05 09:42:33;;;;;;;2.80;1.50;;;11.60;55.10;;;;;;4378323;32;20093;-61
2021/05/05 09:45:08;;;;;;;2.50;1.42;;;11.50;55.60;;;;;;4376695;32;20081;-62
2021/05/05 09:47:53;;;;;;;3.37;1.48;;;11.50;55.60;;;;;;4396255;32;20503;-62
2021/05/05 09:50:44;;;;;;;3.50;1.50;;;11.60;55.00;;;;;;4378394;32;20568;-60
2021/05/05 09:53:21;;;;;;;1.45;1.30;;;11.70;54.60;;;;;;4381114;32;20173;-61
2021/05/05 09:56:09;;;;;;;4.40;1.77;;;11.60;54.50;;;;;;4387491;32;20097;-61
2021/05/05 09:58:40;;;;;;;3.15;1.42;;;11.60;55.00;;;;;;4374186;32;20054;-62
2021/05/05 10:01:07;;;;;;;2.50;1.62;;;12.00;55.00;;;;;;4382869;32;20149;-61
2021/05/05 10:03:38;;;;;;;2.53;1.62;;;12.10;55.20;;;;;;4394003;32;20065;-62
2021/05/05 10:06:33;;;;;;;4.65;1.62;;;12.00;54.10;;;;;;4402185;32;20058;-61
2021/05/05 10:09:05;;;;;;;2.00;1.37;;;12.00;54.40;;;;;;4379093;32;20161;-61
2021/05/05 10:11:40;;;;;;;4.50;1.62;;;12.20;53.10;;;;;;4385228;32;20102;-63
2021/05/05 10:14:11;;;;;;;1.73;1.15;;;12.00;52.40;;;;;;4386303;32;20081;-62
2021/05/05 10:16:40;;;;;;;3.95;1.30;;;11.90;51.50;;;;;;4364700;32;20062;-64
2021/05/05 10:19:10;;;;;;;2.20;1.35;;;11.70;52.20;;;;;;4384106;32;20061;-63
2021/05/05 10:22:01;;;;;;;1.60;0.90;;;12.00;52.80;;;;;;4355277;32;20170;-62
2021/05/05 10:24:29;;;;;;;3.83;1.87;;;12.10;51.70;;;;;;4363454;32;20229;-62
2021/05/05 10:26:56;;;;;;;3.12;1.85;;;12.00;52.30;;;;;;4363166;32;20113;-62
2021/05/05 10:29:22;;;;;;;4.90;2.90;;;12.00;53.00;;;;;;4377464;32;20163;-62
2021/05/05 10:31:52;;;;;;;1.15;0.82;;;12.20;52.20;;;;;;4367891;32;20100;-63
2021/05/05 10:34:22;;;;;;;3.03;1.45;;;12.00;52.30;;;;;;4373090;32;20525;-63
2021/05/05 10:36:55;;;;;;;3.72;2.10;;;11.90;52.20;;;;;;4374788;32;20074;-63
2021/05/05 10:39:34;;;;;;;4.30;1.27;;;12.20;52.20;;;;;;4397418;32;20153;-62
2021/05/05 10:42:01;;;;;;;2.92;1.42;;;12.20;52.60;;;;;;4390333;32;20066;-62
2021/05/05 10:44:40;;;;;;;3.85;1.35;;;11.90;52.20;;;;;;4367307;32;20487;-62
2021/05/05 10:47:18;;;;;;;2.92;1.27;;;12.30;51.90;;;;;;4366067;32;20062;-62
2021/05/05 10:50:00;;;;;;;2.20;1.17;;;12.60;51.30;;;;;;4378824;32;20556;-62
2021/05/05 10:52:28;;;;;;;1.95;1.20;;;11.80;51.80;;;;;;4397250;32;20600;-62
2021/05/05 10:54:56;;;;;;;1.35;1.10;;;12.00;52.10;;;;;;4372353;32;20165;-63
2021/05/05 10:57:24;;;;;;;2.92;1.30;;;12.10;53.50;;;;;;4379101;32;20070;-63
2021/05/05 11:00:07;;;;;;;2.62;1.37;;;11.90;52.50;;;;;;4377006;32;20085;-63
2021/05/05 11:02:57;;;;;;;2.47;1.30;;;11.90;53.60;;;;;;4392040;32;20515;-60
2021/05/05 11:05:29;;;;;;;1.95;1.30;;;12.00;53.80;;;;;;4384629;32;20145;-63
2021/05/05 11:08:02;;;;;;;1.62;1.25;;;12.00;52.00;;;;;;4392307;32;20058;-62
2021/05/05 11:10:35;;;;;;;2.47;1.58;;;12.10;50.50;;;;;;4377897;32;20084;-61
2021/05/05 11:13:14;;;;;;;2.62;1.40;;;12.50;50.30;;;;;;4392669;32;20065;-61
2021/05/05 11:15:41;;;;;;;2.90;1.23;;;12.70;50.30;;;;;;4398162;32;20145;-63
2021/05/05 11:21:05;;;;;;;1.87;1.60;;;12.30;51.10;;;;;;4405035;32;20073;-61
2021/05/05 11:23:35;;;;;;;1.77;1.33;;;12.10;51.40;;;;;;4375415;32;20183;-62
2021/05/05 11:26:38;;;;;;;3.58;1.25;;;12.20;50.60;;;;;;4404173;32;20239;-63
2021/05/05 11:29:11;;;;;;;4.07;1.60;;;12.90;49.20;;;;;;4366282;32;20540;-61
2021/05/05 11:31:50;;;;;;;3.40;1.70;;;12.80;49.60;;;;;;4374240;32;20075;-61
2021/05/05 11:34:26;;;;;;;3.47;1.40;;;12.80;48.60;;;;;;4393752;32;20073;-59
2021/05/05 11:36:58;;;;;;;2.72;1.60;;;12.60;48.60;;;;;;4390856;32;20528;-62
2021/05/05 11:39:55;;;;;;;2.28;1.40;;;12.60;49.30;;;;;;4398717;32;20109;-61
2021/05/05 11:42:29;;;;;;;2.58;1.55;;;12.30;49.30;;;;;;4393446;32;20193;-61
2021/05/05 11:44:57;;;;;;;1.80;1.50;;;12.30;50.00;;;;;;4385825;32;20070;-60
2021/05/05 11:47:39;;;;;;;1.37;1.20;;;12.60;50.00;;;;;;4377825;32;20089;-63
2021/05/05 11:50:08;;;;;;;1.98;1.30;;;12.30;49.30;;;;;;4361821;32;20058;-61
2021/05/05 11:52:50;;;;;;;5.40;1.80;;;12.40;49.90;;;;;;4384185;32;20075;-63
2021/05/05 11:55:27;;;;;;;5.43;1.70;;;12.80;50.40;;;;;;4377490;32;20108;-62
2021/05/05 11:57:55;;;;;;;4.07;1.83;;;12.70;50.00;;;;;;4391763;32;20109;-63
2021/05/05 12:00:33;;;;;;;3.55;1.60;;;12.70;50.30;;;;;;4383764;32;20497;-63
2021/05/05 12:03:01;;;;;;;4.72;1.75;;;12.30;49.60;;;;;;4384641;32;20101;-62
2021/05/05 12:05:37;;;;;;;3.72;1.67;;;12.30;50.00;;;;;;4355524;32;20077;-61
2021/05/05 12:08:16;;;;;;;5.60;1.70;;;12.40;51.10;;;;;;4374620;32;20185;-60
2021/05/05 12:10:49;;;;;;;4.50;1.55;;;12.10;50.40;;;;;;4373483;32;20112;-63
2021/05/05 12:13:26;;;;;;;1.33;1.23;;;12.30;50.00;;;;;;4386217;32;20167;-60
2021/05/05 12:16:17;;;;;;;4.57;1.60;;;12.40;50.60;;;;;;4381547;32;20065;-59
2021/05/05 12:18:48;;;;;;;2.78;1.65;;;12.20;50.30;;;;;;4374146;32;20085;-60
2021/05/05 12:21:22;;;;;;;6.07;1.67;;;12.20;51.00;;;;;;4374259;32;20159;-60
2021/05/05 12:23:50;;;;;;;4.00;1.80;;;12.40;51.10;;;;;;4397857;32;20082;-60
2021/05/05 12:26:20;;;;;;;3.33;1.58;;;12.30;50.20;;;;;;4361125;32;20062;-61
2021/05/05 12:28:50;;;;;;;2.65;1.30;;;12.30;50.60;;;;;;4402645;32;20066;-61
2021/05/05 12:31:19;;;;;;;3.62;1.48;;;12.40;50.90;;;;;;4383029;32;20093;-63
2021/05/05 12:33:46;;;;;;;3.03;1.35;;;12.20;49.60;;;;;;4390789;32;20129;-62
2021/05/05 12:36:21;;;;;;;1.80;1.02;;;12.20;50.00;;;;;;4364060;32;20105;-61
2021/05/05 12:39:12;;;;;;;3.08;1.37;;;12.20;50.00;;;;;;4373689;32;20081;-60
2021/05/05 12:41:46;;;;;;;3.97;1.48;;;12.40;49.80;;;;;;4373487;32;20157;-61
2021/05/05 12:44:14;;;;;;;3.97;1.30;;;12.40;49.80;;;;;;4384804;32;20528;-60
2021/05/05 12:49:44;;;;;;;4.05;1.60;;;12.50;48.00;;;;;;4316919;33;20086;-63
2021/05/05 12:55:32;;;;;;;2.85;1.70;;;12.50;48.00;;;;;;3840980;37;20086;-61
2021/05/05 12:58:08;;;;;;;6.35;2.03;;;12.50;47.80;;;;;;4396755;32;20085;-61
2021/05/05 13:00:37;;;;;;;2.80;1.67;;;12.50;46.80;;;;;;4391277;32;20073;-61
2021/05/05 13:03:09;;;;;;;2.12;1.37;;;12.50;46.90;;;;;;4390619;32;20498;-62
2021/05/05 13:05:57;;;;;;;3.33;1.80;;;12.70;47.00;;;;;;4405476;32;20165;-62
2021/05/05 13:08:37;;;;;;;2.00;1.50;;;12.80;46.10;;;;;;4407861;32;20073;-64
2021/05/05 13:11:11;;;;;;;2.83;1.65;;;12.80;46.20;;;;;;4399286;32;20238;-63
2021/05/05 13:13:58;;;;;;;3.08;1.95;;;12.60;46.40;;;;;;4376608;32;20279;-63
2021/05/05 13:30:51;;;;;;;3.12;1.42;;;12.60;46.70;;;;;;4383236;32;20518;-60